createdAt,value
2022-08-22T00:01:03.929Z,55.55
2022-08-22T00:02:57.557Z,53.83
2022-08-22T00:03:00.232Z,40.64
2022-08-22T00:03:46.714Z,55.51
2022-08-22T00:06:40.374Z,55.85
2022-08-22T00:09:31.973Z,56.25
2022-08-22T00:12:03.949Z,56.67
2022-08-22T00:14:56.470Z,56.65
2022-08-22T00:17:22.779Z,57.50
2022-08-22T00:20:01.805Z,57.42
2022-08-22T00:23:12.900Z,57.29
2022-08-22T00:25:47.627Z,57.42
2022-08-22T00:28:21.194Z,57.33
2022-08-22T00:30:58.183Z,56.88
2022-08-22T00:33:38.953Z,57.21
2022-08-22T00:36:13.645Z,57.34
2022-08-22T00:38:48.316Z,57.62
2022-08-22T00:41:30.093Z,57.24
2022-08-22T00:44:05.941Z,57.30
2022-08-22T00:46:52.823Z,57.76
2022-08-22T00:49:45.047Z,57.81
2022-08-22T00:52:14.390Z,58.05
2022-08-22T00:55:01.471Z,58.29
2022-08-22T00:57:39.275Z,57.48
2022-08-22T01:00:38.618Z,57.65
2022-08-22T01:03:18.560Z,58.58
2022-08-22T01:06:09.795Z,58.72
2022-08-22T01:09:14.012Z,59.01
2022-08-22T01:12:09.452Z,59.50
2022-08-22T01:14:48.237Z,59.49
2022-08-22T01:17:38.944Z,59.65
2022-08-22T01:20:23.860Z,60.04
2022-08-22T01:23:36.160Z,60.44
2022-08-22T01:26:41.102Z,60.31
2022-08-22T01:29:52.591Z,60.76
2022-08-22T01:32:40.608Z,60.66
2022-08-22T01:35:29.228Z,60.38
2022-08-22T01:38:22.863Z,60.19
2022-08-22T01:40:53.817Z,60.23
2022-08-22T01:43:59.263Z,60.29
2022-08-22T01:46:46.081Z,60.85
2022-08-22T01:49:34.255Z,61.40
2022-08-22T01:52:20.594Z,62.24
2022-08-22T01:54:55.700Z,61.86
2022-08-22T01:57:23.255Z,61.35
2022-08-22T01:59:52.941Z,61.23
2022-08-22T02:02:40.527Z,61.19
2022-08-22T02:05:25.706Z,61.34
2022-08-22T02:08:03.829Z,61.94
2022-08-22T02:10:54.609Z,61.93
2022-08-22T02:13:49.949Z,62.08
2022-08-22T02:16:37.594Z,61.80
2022-08-22T02:19:10.127Z,62.70
2022-08-22T02:21:47.413Z,62.86
2022-08-22T02:24:24.906Z,63.08
2022-08-22T02:27:04.053Z,63.27
2022-08-22T02:29:46.597Z,62.79
2022-08-22T02:32:30.043Z,62.88
2022-08-22T02:35:05.600Z,62.96
2022-08-22T02:37:32.059Z,63.16
2022-08-22T02:40:14.277Z,63.71
2022-08-22T02:42:57.243Z,63.33
2022-08-22T02:45:43.469Z,62.83
2022-08-22T02:48:32.439Z,62.54
2022-08-22T02:51:20.590Z,62.76
2022-08-22T02:53:57.573Z,62.54
2022-08-22T02:56:34.958Z,62.09
2022-08-22T02:59:33.230Z,62.06
2022-08-22T03:02:27.725Z,62.66
2022-08-22T03:05:01.390Z,62.60
2022-08-22T03:07:43.691Z,62.82
2022-08-22T03:10:16.447Z,63.31
2022-08-22T03:13:06.722Z,62.80
2022-08-22T03:16:23.625Z,62.44
2022-08-22T03:19:18.542Z,62.91
2022-08-22T03:22:01.131Z,63.08
2022-08-22T03:24:43.223Z,63.34
2022-08-22T03:27:32.059Z,63.28
2022-08-22T03:30:12.309Z,63.66
2022-08-22T03:33:15.271Z,63.28
2022-08-22T03:35:42.112Z,63.23
2022-08-22T03:38:26.108Z,63.52
2022-08-22T03:41:26.995Z,62.99
2022-08-22T03:44:23.010Z,63.49
2022-08-22T03:46:49.378Z,63.44
2022-08-22T03:49:33.858Z,63.16
2022-08-22T03:52:34.206Z,62.91
2022-08-22T03:55:40.462Z,63.41
2022-08-22T03:58:49.195Z,64.65
2022-08-22T04:01:35.015Z,63.08
2022-08-22T04:04:10.318Z,62.79
2022-08-22T04:06:56.549Z,63.49
2022-08-22T04:09:42.819Z,63.83
2022-08-22T04:12:26.018Z,63.15
2022-08-22T04:15:10.816Z,63.42
2022-08-22T04:17:49.100Z,63.34
2022-08-22T04:20:37.884Z,63.13
2022-08-22T04:23:26.637Z,63.58
2022-08-22T04:25:58.528Z,64.17
2022-08-22T04:28:34.189Z,64.32
2022-08-22T04:31:12.011Z,64.14
2022-08-22T04:33:53.241Z,64.53
2022-08-22T04:36:39.872Z,64.90
2022-08-22T04:39:40.166Z,64.82
2022-08-22T04:42:40.299Z,64.23
2022-08-22T04:45:16.894Z,64.25
2022-08-22T04:47:54.031Z,64.13
2022-08-22T04:50:43.281Z,64.01
2022-08-22T04:53:32.368Z,64.14
2022-08-22T04:56:07.282Z,64.57
2022-08-22T04:58:49.364Z,64.94
2022-08-22T05:01:46.881Z,64.59
2022-08-22T05:04:28.238Z,65.12
2022-08-22T05:07:14.442Z,64.91
2022-08-22T05:09:46.359Z,64.61
2022-08-22T05:12:22.091Z,64.56
2022-08-22T05:14:55.211Z,64.39
2022-08-22T05:17:29.469Z,64.36
2022-08-22T05:20:02.481Z,64.11
2022-08-22T05:22:36.070Z,64.03
2022-08-22T05:25:08.544Z,63.58
2022-08-22T05:27:41.824Z,63.96
2022-08-22T05:30:13.357Z,64.29
2022-08-22T05:32:55.699Z,64.40
2022-08-22T05:35:50.155Z,64.43
2022-08-22T05:38:23.905Z,64.04
2022-08-22T05:40:59.297Z,63.80
2022-08-22T05:43:27.033Z,63.58
2022-08-22T05:45:57.937Z,63.86
2022-08-22T05:48:40.384Z,63.72
2022-08-22T05:51:21.309Z,64.15
2022-08-22T05:54:07.975Z,64.31
2022-08-22T05:56:44.987Z,64.68
2022-08-22T05:59:29.581Z,65.35
2022-08-22T06:02:14.035Z,65.44
2022-08-22T06:05:00.799Z,65.76
2022-08-22T06:07:45.277Z,65.80
2022-08-22T06:10:22.816Z,66.03
2022-08-22T06:13:05.961Z,65.74
2022-08-22T06:15:48.481Z,66.01
2022-08-22T06:18:19.283Z,65.95
2022-08-22T06:20:58.546Z,65.74
2022-08-22T06:23:29.382Z,65.70
2022-08-22T06:25:59.425Z,65.21
2022-08-22T06:28:32.450Z,64.96
2022-08-22T06:31:01.206Z,65.26
2022-08-22T06:33:30.857Z,64.53
2022-08-22T06:36:32.505Z,64.62
2022-08-22T06:39:05.516Z,63.80
2022-08-22T06:41:36.662Z,63.68
2022-08-22T06:44:05.554Z,63.92
2022-08-22T06:46:36.213Z,63.55
2022-08-22T06:49:05.734Z,63.60
2022-08-22T06:51:34.227Z,62.68
2022-08-22T06:54:03.792Z,62.94
2022-08-22T06:56:35.615Z,63.52
2022-08-22T06:59:07.709Z,62.70
2022-08-22T07:01:39.680Z,62.92
2022-08-22T07:04:09.002Z,62.10
2022-08-22T07:06:42.492Z,61.04
2022-08-22T07:09:28.687Z,60.75
2022-08-22T07:11:57.574Z,60.47
2022-08-22T07:14:41.539Z,60.67
2022-08-22T07:17:15.321Z,60.41
2022-08-22T07:20:07.944Z,60.32
2022-08-22T07:22:37.365Z,59.68
2022-08-22T07:25:09.135Z,59.66
2022-08-22T07:27:53.702Z,59.97
2022-08-22T07:30:27.851Z,59.56
2022-08-22T07:33:25.202Z,59.83
2022-08-22T07:35:54.167Z,60.01
2022-08-22T07:38:23.733Z,59.41
2022-08-22T07:41:32.753Z,60.71
2022-08-22T07:44:22.108Z,62.29
2022-08-22T07:46:55.875Z,63.97
2022-08-22T07:49:27.130Z,62.89
2022-08-22T07:51:58.760Z,63.13
2022-08-22T07:54:36.303Z,63.19
2022-08-22T07:57:07.740Z,63.21
2022-08-22T07:59:37.245Z,64.08
2022-08-22T08:02:07.796Z,63.58
2022-08-22T08:04:40.211Z,63.23
2022-08-22T08:07:09.917Z,62.22
2022-08-22T08:09:49.704Z,60.69
2022-08-22T08:12:19.441Z,59.82
2022-08-22T08:14:52.125Z,58.92
2022-08-22T08:17:39.146Z,58.09
2022-08-22T08:20:10.333Z,57.67
2022-08-22T08:22:38.557Z,57.77
2022-08-22T08:25:07.588Z,57.30
2022-08-22T08:27:56.344Z,56.82
2022-08-22T08:30:34.715Z,56.64
2022-08-22T08:33:24.889Z,56.17
2022-08-22T08:36:26.605Z,55.39
2022-08-22T08:39:10.138Z,55.13
2022-08-22T08:42:08.818Z,55.66
2022-08-22T08:44:37.912Z,56.01
2022-08-22T08:47:19.865Z,55.25
2022-08-22T08:50:15.485Z,54.72
2022-08-22T08:53:11.762Z,54.57
2022-08-22T08:55:51.660Z,53.65
2022-08-22T08:58:31.813Z,54.59
2022-08-22T09:01:30.977Z,54.19
2022-08-22T09:04:16.064Z,54.25
2022-08-22T09:07:27.045Z,53.39
2022-08-22T09:10:31.523Z,52.39
2022-08-22T09:13:23.721Z,52.04
2022-08-22T09:16:25.852Z,51.72
2022-08-22T09:18:58.582Z,51.40
2022-08-22T09:21:43.716Z,51.48
2022-08-22T09:24:12.986Z,51.45
2022-08-22T09:27:03.677Z,51.96
2022-08-22T09:30:11.553Z,51.30
2022-08-22T09:32:54.568Z,51.79
2022-08-22T09:35:27.930Z,51.98
2022-08-22T09:38:28.434Z,51.73
2022-08-22T09:41:17.662Z,51.37
2022-08-22T09:43:57.809Z,51.36
2022-08-22T09:47:06.906Z,52.43
2022-08-22T09:49:48.195Z,52.51
2022-08-22T09:52:48.220Z,51.43
2022-08-22T09:55:52.655Z,51.88
2022-08-22T09:58:41.536Z,51.63
2022-08-22T10:01:32.783Z,51.55
2022-08-22T10:04:14.596Z,51.08
2022-08-22T10:06:59.445Z,51.35
2022-08-22T10:09:33.811Z,50.87
2022-08-22T10:12:06.866Z,50.29
2022-08-22T10:14:51.366Z,49.86
2022-08-22T10:17:25.782Z,48.38
2022-08-22T10:20:22.908Z,48.62
2022-08-22T10:23:05.313Z,48.91
2022-08-22T10:25:42.144Z,48.58
2022-08-22T10:28:14.765Z,46.83
2022-08-22T10:31:15.526Z,46.86
2022-08-22T10:34:08.018Z,46.36
2022-08-22T10:37:12.024Z,44.63
2022-08-22T10:39:47.957Z,44.85
2022-08-22T10:42:23.184Z,44.74
2022-08-22T10:45:36.027Z,44.85
2022-08-22T10:48:09.782Z,42.86
2022-08-22T10:50:44.747Z,42.91
2022-08-22T10:53:34.743Z,43.72
2022-08-22T10:56:21.394Z,42.86
2022-08-22T10:58:55.935Z,43.16
2022-08-22T11:01:38.504Z,43.07
2022-08-22T11:04:47.347Z,43.33
2022-08-22T11:07:37.959Z,42.57
2022-08-22T11:10:21.251Z,42.20
2022-08-22T11:13:16.474Z,41.02
2022-08-22T11:15:58.443Z,41.19
2022-08-22T11:18:28.130Z,41.65
2022-08-22T11:21:29.076Z,40.95
2022-08-22T11:24:17.427Z,40.13
2022-08-22T11:27:07.366Z,40.62
2022-08-22T11:29:50.251Z,42.44
2022-08-22T11:32:30.074Z,41.17
2022-08-22T11:35:09.208Z,40.22
2022-08-22T11:37:56.271Z,39.19
2022-08-22T11:40:48.392Z,38.08
2022-08-22T11:43:33.449Z,35.84
2022-08-22T11:46:23.448Z,35.48
2022-08-22T11:49:10.825Z,36.48
2022-08-22T11:51:58.704Z,36.78
2022-08-22T11:54:43.896Z,37.49
2022-08-22T11:57:20.179Z,35.22
2022-08-22T11:59:53.320Z,35.85
2022-08-22T12:02:55.192Z,34.52
2022-08-22T12:05:27.191Z,34.67
2022-08-22T12:08:13.807Z,34.20
2022-08-22T12:10:52.696Z,33.53
2022-08-22T12:13:49.951Z,33.05
2022-08-22T12:16:48.799Z,33.26
2022-08-22T12:19:42.106Z,32.76
2022-08-22T12:22:56.198Z,33.19
2022-08-22T12:25:44.441Z,32.33
2022-08-22T12:28:15.759Z,32.21
2022-08-22T12:31:33.345Z,31.60
2022-08-22T12:34:28.945Z,32.27
2022-08-22T12:37:32.995Z,31.85
2022-08-22T12:40:58.139Z,33.19
2022-08-22T12:43:27.254Z,32.54
2022-08-22T12:46:20.297Z,31.68
2022-08-22T12:49:07.789Z,31.93
2022-08-22T12:52:08.701Z,32.18
2022-08-22T12:54:56.497Z,32.47
2022-08-22T12:57:46.211Z,32.83
2022-08-22T13:00:31.844Z,32.94
2022-08-22T13:03:03.939Z,32.43
2022-08-22T13:05:40.449Z,32.22
2022-08-22T13:08:13.690Z,32.76
2022-08-22T13:10:51.954Z,32.35
2022-08-22T13:13:56.188Z,32.29
2022-08-22T13:16:24.891Z,31.88
2022-08-22T13:18:55.996Z,31.55
2022-08-22T13:21:34.570Z,31.80
2022-08-22T13:24:38.817Z,31.42
2022-08-22T13:27:14.955Z,31.32
2022-08-22T13:29:51.872Z,31.39
2022-08-22T13:32:31.046Z,30.67
2022-08-22T13:35:00.002Z,30.47
2022-08-22T13:37:36.378Z,30.49
2022-08-22T13:40:08.804Z,30.05
2022-08-22T13:42:43.947Z,30.91
2022-08-22T13:45:23.927Z,30.96
2022-08-22T13:47:57.186Z,30.17
2022-08-22T13:50:27.574Z,30.38
2022-08-22T13:53:08.136Z,30.43
2022-08-22T13:55:44.565Z,30.28
2022-08-22T13:58:38.505Z,30.54
2022-08-22T14:01:25.413Z,30.18
2022-08-22T14:03:54.767Z,30.72
2022-08-22T14:06:37.703Z,30.60
2022-08-22T14:09:17.425Z,28.91
2022-08-22T14:12:24.461Z,30.05
2022-08-22T14:14:59.428Z,30.20
2022-08-22T14:17:42.722Z,29.94
2022-08-22T14:20:12.627Z,29.19
2022-08-22T14:22:45.849Z,30.26
2022-08-22T14:25:23.011Z,29.90
2022-08-22T14:27:57.979Z,29.30
2022-08-22T14:30:29.892Z,29.60
2022-08-22T14:33:05.229Z,29.56
2022-08-22T14:35:37.910Z,29.03
2022-08-22T14:38:35.217Z,28.85
2022-08-22T14:41:24.354Z,28.01
2022-08-22T14:44:05.439Z,28.19
2022-08-22T14:46:49.738Z,27.71
2022-08-22T14:49:19.144Z,27.10
2022-08-22T14:51:54.732Z,28.46
2022-08-22T14:54:23.342Z,28.02
2022-08-22T14:56:57.100Z,27.90
2022-08-22T14:59:32.393Z,27.94
2022-08-22T15:02:06.103Z,27.72
2022-08-22T15:04:40.440Z,27.74
2022-08-22T15:07:09.623Z,28.33
2022-08-22T15:10:06.167Z,28.31
2022-08-22T15:12:36.807Z,27.33
2022-08-22T15:15:12.801Z,26.74
2022-08-22T15:17:44.810Z,26.59
2022-08-22T15:20:27.740Z,27.42
2022-08-22T15:22:58.067Z,27.67
2022-08-22T15:25:33.465Z,27.38
2022-08-22T15:28:20.454Z,27.96
2022-08-22T15:31:03.466Z,27.29
2022-08-22T15:33:45.378Z,27.97
2022-08-22T15:36:20.962Z,27.34
2022-08-22T15:38:53.478Z,27.15
2022-08-22T15:41:36.210Z,27.10
2022-08-22T15:44:15.048Z,27.65
2022-08-22T15:47:04.561Z,27.85
2022-08-22T15:49:36.526Z,27.52
2022-08-22T15:52:03.990Z,27.04
2022-08-22T15:54:51.438Z,26.42
2022-08-22T15:57:40.040Z,26.86
2022-08-22T16:00:45.111Z,27.10
2022-08-22T16:03:28.249Z,27.19
2022-08-22T16:06:00.099Z,27.01
2022-08-22T16:08:44.130Z,26.59
2022-08-22T16:11:33.445Z,26.55
2022-08-22T16:14:23.529Z,26.72
2022-08-22T16:16:50.985Z,26.07
2022-08-22T16:19:23.671Z,26.60
2022-08-22T16:21:56.046Z,26.62
2022-08-22T16:24:22.338Z,27.03
2022-08-22T16:26:49.215Z,26.75
2022-08-22T16:29:41.270Z,26.49
2022-08-22T16:32:11.009Z,26.50
2022-08-22T16:34:37.322Z,25.87
2022-08-22T16:37:03.648Z,25.68
2022-08-22T16:40:01.425Z,25.46
2022-08-22T16:42:36.835Z,25.11
2022-08-22T16:45:05.999Z,25.77
2022-08-22T16:47:41.695Z,24.53
2022-08-22T16:50:22.989Z,24.19
2022-08-22T16:53:11.054Z,24.88
2022-08-22T16:55:43.133Z,24.76
2022-08-22T16:58:40.077Z,24.41
2022-08-22T17:01:50.417Z,24.95
2022-08-22T17:04:54.617Z,24.06
2022-08-22T17:07:44.198Z,24.02
2022-08-22T17:10:28.776Z,24.27
2022-08-22T17:13:14.027Z,24.23
2022-08-22T17:16:10.025Z,24.20
2022-08-22T17:18:45.059Z,24.07
2022-08-22T17:21:26.243Z,24.28
2022-08-22T17:24:32.399Z,24.35
2022-08-22T17:27:06.043Z,24.34
2022-08-22T17:30:06.880Z,24.50
2022-08-22T17:32:33.425Z,24.71
2022-08-22T17:35:24.741Z,24.73
2022-08-22T17:38:00.142Z,25.31
2022-08-22T17:40:36.899Z,26.14
2022-08-22T17:43:11.967Z,26.45
2022-08-22T17:46:19.234Z,26.74
2022-08-22T17:48:59.271Z,27.34
2022-08-22T17:51:56.581Z,28.11
2022-08-22T17:54:30.633Z,28.47
2022-08-22T17:57:14.452Z,29.04
2022-08-22T17:59:53.387Z,29.51
2022-08-22T18:02:31.529Z,30.19
2022-08-22T18:05:07.169Z,31.23
2022-08-22T18:07:44.807Z,31.28
2022-08-22T18:10:17.213Z,31.22
2022-08-22T18:13:01.389Z,31.40
2022-08-22T18:15:52.039Z,31.84
2022-08-22T18:18:39.030Z,32.37
2022-08-22T18:21:20.447Z,32.60
2022-08-22T18:23:58.965Z,32.78
2022-08-22T18:26:47.248Z,32.83
2022-08-22T18:29:16.348Z,33.84
2022-08-22T18:32:01.253Z,34.00
2022-08-22T18:34:40.686Z,34.36
2022-08-22T18:37:20.801Z,34.89
2022-08-22T18:39:56.076Z,35.00
2022-08-22T18:42:25.578Z,35.12
2022-08-22T18:44:51.939Z,35.26
2022-08-22T18:47:35.008Z,35.68
2022-08-22T18:50:24.351Z,36.82
2022-08-22T18:52:51.191Z,36.78
2022-08-22T18:55:30.929Z,36.56
2022-08-22T18:58:12.652Z,36.67
2022-08-22T19:00:55.762Z,36.89
2022-08-22T19:03:43.982Z,37.22
2022-08-22T19:06:32.282Z,37.35
2022-08-22T19:09:20.722Z,37.28
2022-08-22T19:12:07.316Z,36.93
2022-08-22T19:15:10.675Z,37.33
2022-08-22T19:17:59.723Z,36.91
2022-08-22T19:20:55.153Z,37.40
2022-08-22T19:23:37.275Z,37.37
2022-08-22T19:26:30.977Z,37.62
2022-08-22T19:29:10.494Z,37.59
2022-08-22T19:31:41.144Z,38.12
2022-08-22T19:34:25.880Z,38.75
2022-08-22T19:37:11.345Z,39.30
2022-08-22T19:40:01.110Z,39.14
2022-08-22T19:42:34.571Z,39.36
2022-08-22T19:45:19.292Z,39.61
2022-08-22T19:47:57.016Z,40.43
2022-08-22T19:50:26.169Z,40.44
2022-08-22T19:53:05.511Z,41.02
2022-08-22T19:55:38.026Z,41.09
2022-08-22T19:58:32.811Z,41.63
2022-08-22T20:01:09.798Z,41.08
2022-08-22T20:04:06.028Z,41.23
2022-08-22T20:06:44.700Z,41.36
2022-08-22T20:09:11.441Z,41.98
2022-08-22T20:11:56.536Z,42.33
2022-08-22T20:14:30.618Z,42.51
2022-08-22T20:17:13.142Z,43.21
2022-08-22T20:22:58.206Z,43.88
2022-08-22T20:25:42.468Z,43.54
2022-08-22T20:28:47.437Z,43.81
2022-08-22T20:31:23.233Z,43.19
2022-08-22T20:33:57.147Z,43.22
2022-08-22T20:36:27.880Z,43.80
2022-08-22T20:39:01.644Z,43.64
2022-08-22T20:41:33.261Z,44.15
2022-08-22T20:44:16.824Z,44.40
2022-08-22T20:47:03.115Z,44.50
2022-08-22T20:49:41.931Z,44.85
2022-08-22T20:52:20.381Z,44.30
2022-08-22T20:55:20.697Z,44.83
2022-08-22T20:57:51.815Z,45.66
2022-08-22T21:00:40.540Z,46.12
2022-08-22T21:03:24.367Z,46.75
2022-08-22T21:05:50.904Z,46.95
2022-08-22T21:08:26.385Z,47.44
2022-08-22T21:11:40.123Z,47.09
2022-08-22T21:14:24.634Z,47.54
2022-08-22T21:16:52.967Z,47.94
2022-08-22T21:19:24.862Z,48.42
2022-08-22T21:21:51.476Z,48.38
2022-08-22T21:24:17.912Z,48.48
2022-08-22T21:26:58.720Z,47.83
2022-08-22T21:29:32.436Z,47.55
2022-08-22T21:32:16.683Z,47.30
2022-08-22T21:34:47.690Z,47.90
2022-08-22T21:37:18.020Z,47.84
2022-08-22T21:39:47.905Z,48.30
2022-08-22T21:42:26.615Z,47.94
2022-08-22T21:45:02.372Z,48.19
2022-08-22T21:47:30.773Z,48.74
2022-08-22T21:50:13.249Z,48.95
2022-08-22T21:52:44.010Z,50.00
2022-08-22T21:55:42.946Z,49.84
2022-08-22T21:58:12.622Z,49.77
2022-08-22T22:00:48.951Z,49.85
2022-08-22T22:03:18.222Z,50.37
2022-08-22T22:05:44.865Z,49.95
2022-08-22T22:08:11.679Z,50.61
2022-08-22T22:10:43.240Z,51.11
2022-08-22T22:13:10.376Z,50.16
2022-08-22T22:15:45.041Z,50.49
2022-08-22T22:18:14.199Z,50.22
2022-08-22T22:20:41.459Z,50.81
2022-08-22T22:23:07.896Z,50.61
2022-08-22T22:25:40.210Z,50.31
2022-08-22T22:28:21.640Z,49.68
2022-08-22T22:30:55.717Z,49.94
2022-08-22T22:33:25.698Z,49.85
2022-08-22T22:35:54.434Z,49.42
2022-08-22T22:38:24.049Z,50.41
2022-08-22T22:40:51.907Z,49.59
2022-08-22T22:43:18.706Z,49.43
2022-08-22T22:45:45.116Z,49.20
2022-08-22T22:48:11.609Z,49.31
2022-08-22T22:50:44.101Z,49.85
2022-08-22T22:53:11.497Z,50.22
2022-08-22T22:55:47.941Z,50.63
2022-08-22T22:58:26.782Z,49.93
2022-08-22T23:00:53.278Z,49.97
2022-08-22T23:03:19.669Z,50.13
2022-08-22T23:05:45.996Z,50.38
2022-08-22T23:08:12.456Z,49.41
2022-08-22T23:10:38.799Z,49.56
2022-08-22T23:13:06.044Z,50.19
2022-08-22T23:15:32.409Z,50.30
2022-08-22T23:17:58.945Z,50.13
2022-08-22T23:20:25.416Z,50.75
2022-08-22T23:22:51.769Z,50.54
2022-08-22T23:25:18.182Z,51.00
2022-08-22T23:27:44.684Z,50.91
2022-08-22T23:30:18.452Z,50.91
2022-08-22T23:32:44.790Z,50.35
2022-08-22T23:35:11.254Z,50.46
2022-08-22T23:37:37.587Z,50.94
2022-08-22T23:40:07.257Z,51.46
2022-08-22T23:42:33.656Z,50.46
2022-08-22T23:45:00.043Z,50.20
2022-08-22T23:47:26.403Z,50.52
2022-08-22T23:49:52.714Z,50.50
2022-08-22T23:52:19.144Z,50.40
2022-08-22T23:54:46.510Z,51.35
2022-08-22T23:57:13.525Z,50.79
2022-08-22T23:59:48.480Z,50.79
